This is the latest recevied weather packets stored in our database for station/object W8CEN. If no packets are shown the sender has not sent any weather packets the latest 10 day(s).
| Time | Temp. | Humidity | Pressure | Rain* | Wind** | Luminosity | Snow |
|---|---|---|---|---|---|---|---|
| 1778191592 | 16.67° C | 33% | 990.6 hPa | 0 mm | - | 335 W/m² | - |
| 1778191290 | 16.67° C | 32% | 990.6 hPa | 0 mm | - | 75 W/m² | - |
| 1778190985 | 16.67° C | 32% | 990.6 hPa | 0 mm | - | 344 W/m² | - |
| 1778190683 | 16.67° C | 33% | 990.6 hPa | 0 mm | - | 379 W/m² | - |
| 1778190380 | 16.11° C | 36% | 990.7 hPa | 0 mm | - | 409 W/m² | - |
| 1778190076 | 15.56° C | 34% | 990.5 hPa | 0 mm | - | 393 W/m² | - |
| 1778189773 | 16.11° C | 34% | 990.4 hPa | 0 mm | - | 398 W/m² | - |
| 1778189470 | 16.67° C | 35% | 990.5 hPa | 0 mm | - | 451 W/m² | - |
| 1778189166 | 15.56° C | 36% | 990.8 hPa | 0 mm | - | 509 W/m² | - |
| 1778188863 | 15.56° C | 38% | 990.8 hPa | 0 mm | - | 437 W/m² | - |
| 1778188559 | 16.11° C | 36% | 990.7 hPa | 0 mm | - | 213 W/m² | - |
| 1778188255 | 15.56° C | 35% | 990.6 hPa | 0 mm | - | 193 W/m² | - |
| 1778187953 | 15.56° C | 35% | 990.7 hPa | 0 mm | - | 624 W/m² | - |
| 1778187649 | 15.56° C | 34% | 990.6 hPa | 0 mm | - | 174 W/m² | - |
| 1778187346 | 16.67° C | 32% | 990.7 hPa | 0 mm | - | 124 W/m² | - |
| 1778187043 | 15.56° C | 39% | 990.8 hPa | 0 mm | - | 660 W/m² | - |
| 1778186739 | 16.67° C | 34% | 990.6 hPa | 0 mm | - | 167 W/m² | - |
| 1778186437 | 16.11° C | 37% | 990.5 hPa | 0 mm | - | 513 W/m² | - |
| 1778186134 | 15.56° C | 35% | 990.7 hPa | 0 mm | - | 723 W/m² | - |
| 1778185832 | 15.56° C | 34% | 990.6 hPa | 0 mm | - | 156 W/m² | - |
| 1778185527 | 16.11° C | 35% | 990.8 hPa | 0 mm | - | 187 W/m² | - |
| 1778185224 | 15.56° C | 34% | 990.9 hPa | 0 mm | - | 795 W/m² | - |
| 1778184919 | 15.56° C | 36% | 990.7 hPa | 0 mm | - | 873 W/m² | - |
| 1778184616 | 15.56° C | 37% | 990.8 hPa | 0 mm | - | 850 W/m² | - |
| 1778184311 | 15° C | 36% | 990.9 hPa | 0 mm | - | 819 W/m² | - |
* Rain latest hour (hover to see other rain measurements)
** Current wind speed in m/s (hover to see current wind gust speed)